Time;durP1;ratioP1;P1;durP2;ratioP2;P2;SDS_P1;SDS_P2;PMS_P1;PMS_P2;Temp;Humidity;BMP_temperature;BMP_pressure;BME280_temperature;BME280_humidity;BME280_pressure;Samples;Min_cycle;Max_cycle;Signal;HPM_P1;HPM_P2
2022/03/19 00:01:57;;;;;;;51.97;25.47;;;-3.70;59.60;;;;;;5093435;28;20492;-78
2022/03/19 00:04:23;;;;;;;53.33;24.33;;;-3.70;58.80;;;;;;5093515;28;20095;-78
2022/03/19 00:06:48;;;;;;;60.00;28.60;;;-3.80;58.20;;;;;;5092278;28;20024;-79
2022/03/19 00:09:14;;;;;;;77.63;30.52;;;-3.80;58.10;;;;;;5092083;28;20036;-78
2022/03/19 00:11:40;;;;;;;90.17;37.10;;;-3.80;58.00;;;;;;5091936;28;20059;-78
2022/03/19 00:14:06;;;;;;;91.32;37.42;;;-3.80;58.50;;;;;;5091775;28;20013;-79
2022/03/19 00:16:32;;;;;;;70.43;29.58;;;-3.80;58.50;;;;;;5092126;28;20025;-79
2022/03/19 00:18:57;;;;;;;85.05;35.17;;;-3.90;58.40;;;;;;5092030;28;20115;-78
2022/03/19 00:21:23;;;;;;;96.20;37.73;;;-3.90;58.50;;;;;;5093019;28;20027;-77
2022/03/19 00:23:49;;;;;;;108.47;42.17;;;-4.00;59.30;;;;;;5092138;28;20036;-78
2022/03/19 00:26:15;;;;;;;223.40;85.78;;;-4.00;59.90;;;;;;5093200;28;20039;-77
2022/03/19 00:28:41;;;;;;;105.80;42.38;;;-4.00;60.10;;;;;;5092050;28;20105;-77
2022/03/19 00:31:07;;;;;;;115.57;45.42;;;-4.10;61.00;;;;;;5091790;28;20066;-78
2022/03/19 00:33:33;;;;;;;145.82;54.35;;;-4.20;61.20;;;;;;5103150;28;20062;-79
2022/03/19 00:35:59;;;;;;;129.50;52.30;;;-4.20;61.00;;;;;;5095295;28;20022;-79
2022/03/19 00:38:25;;;;;;;91.60;37.38;;;-4.20;60.60;;;;;;5095265;28;20024;-78
2022/03/19 00:40:51;;;;;;;55.43;27.27;;;-4.20;60.10;;;;;;5113635;28;20466;-79
2022/03/19 00:43:21;;;;;;;43.70;19.93;;;-4.20;59.20;;;;;;5094937;28;20054;-77
2022/03/19 00:45:47;;;;;;;50.00;21.53;;;-4.20;58.70;;;;;;5113420;28;20031;-77
2022/03/19 00:48:14;;;;;;;45.93;21.23;;;-4.20;58.60;;;;;;5113164;28;20028;-77
2022/03/19 00:50:40;;;;;;;57.80;24.33;;;-4.20;59.00;;;;;;5095158;28;20073;-79
2022/03/19 00:53:05;;;;;;;56.03;24.37;;;-4.30;59.40;;;;;;5094913;28;20477;-78
2022/03/19 00:55:31;;;;;;;70.60;29.80;;;-4.30;59.60;;;;;;5113312;28;20019;-79
2022/03/19 00:57:57;;;;;;;48.57;22.47;;;-4.30;60.30;;;;;;5113326;28;20089;-78
2022/03/19 01:00:26;;;;;;;54.95;26.00;;;-4.30;60.20;;;;;;5113369;28;20155;-78
2022/03/19 01:02:53;;;;;;;63.17;24.53;;;-4.20;59.90;;;;;;5094890;28;20057;-78
2022/03/19 01:05:20;;;;;;;49.70;23.33;;;-4.10;59.60;;;;;;5094873;28;20024;-78
2022/03/19 01:07:48;;;;;;;48.13;22.23;;;-4.10;59.00;;;;;;5113068;28;20465;-79
2022/03/19 01:10:19;;;;;;;56.97;23.60;;;-4.10;58.60;;;;;;5095044;28;20049;-79
2022/03/19 01:12:45;;;;;;;44.20;22.05;;;-4.10;59.50;;;;;;5113058;28;20027;-77
2022/03/19 01:15:11;;;;;;;42.60;21.02;;;-4.30;60.70;;;;;;5095027;28;20024;-79
2022/03/19 01:17:37;;;;;;;39.27;20.27;;;-4.40;61.10;;;;;;5094871;28;20031;-78
2022/03/19 01:20:04;;;;;;;46.90;20.80;;;-4.40;61.00;;;;;;5094971;28;20103;-79
2022/03/19 01:22:30;;;;;;;51.55;23.42;;;-4.40;60.80;;;;;;5112971;28;20099;-78
2022/03/19 01:24:57;;;;;;;47.37;22.77;;;-4.40;60.70;;;;;;5094892;28;20055;-79
2022/03/19 01:27:22;;;;;;;50.10;23.13;;;-4.50;61.30;;;;;;5116826;28;20461;-79
2022/03/19 01:29:48;;;;;;;54.40;23.10;;;-4.50;61.70;;;;;;5098631;28;20038;-79
2022/03/19 01:32:14;;;;;;;48.97;23.60;;;-4.50;62.00;;;;;;5116959;28;20080;-80
2022/03/19 01:34:40;;;;;;;56.03;25.17;;;-4.60;62.10;;;;;;5098535;28;20100;-78
2022/03/19 01:37:06;;;;;;;59.47;25.90;;;-4.60;62.50;;;;;;5098492;28;20464;-79
2022/03/19 01:39:32;;;;;;;52.57;24.53;;;-4.60;62.90;;;;;;5098489;28;20055;-78
2022/03/19 01:41:57;;;;;;;75.33;31.40;;;-4.70;62.70;;;;;;5116518;28;20020;-78
2022/03/19 01:44:23;;;;;;;63.40;29.57;;;-4.80;61.90;;;;;;5098371;28;20019;-78
2022/03/19 01:46:59;;;;;;;78.03;31.17;;;-4.80;61.90;;;;;;5098418;28;20083;-78
2022/03/19 01:49:25;;;;;;;63.50;26.47;;;-4.80;61.90;;;;;;5098262;28;20107;-79
2022/03/19 01:51:52;;;;;;;62.23;26.70;;;-4.90;61.80;;;;;;5098342;28;20132;-80
2022/03/19 01:54:22;;;;;;;57.20;26.43;;;-4.90;61.80;;;;;;5098060;28;20092;-79
2022/03/19 01:56:48;;;;;;;45.27;22.83;;;-4.90;61.50;;;;;;5098148;28;20012;-79
2022/03/19 01:59:15;;;;;;;37.23;20.80;;;-4.90;61.10;;;;;;5098211;28;20426;-78
2022/03/19 02:01:42;;;;;;;37.87;21.23;;;-4.80;60.70;;;;;;5098117;28;20103;-80
2022/03/19 02:04:09;;;;;;;46.87;19.77;;;-4.50;59.60;;;;;;5097750;28;20019;-78
2022/03/19 02:06:35;;;;;;;36.03;19.33;;;-4.20;58.70;;;;;;5098111;28;20038;-78
2022/03/19 02:09:01;;;;;;;55.63;23.47;;;-4.20;58.40;;;;;;5097825;28;20032;-78
2022/03/19 02:11:26;;;;;;;53.00;24.77;;;-4.30;59.20;;;;;;5097855;28;20015;-78
2022/03/19 02:13:52;;;;;;;61.85;26.88;;;-4.30;60.40;;;;;;5097660;28;20024;-79
2022/03/19 02:16:20;;;;;;;63.33;28.00;;;-4.40;61.30;;;;;;5116101;28;20474;-79
2022/03/19 02:18:45;;;;;;;53.37;26.47;;;-4.50;61.70;;;;;;5097741;28;20020;-78
2022/03/19 02:21:11;;;;;;;52.23;24.00;;;-4.50;62.00;;;;;;5115983;28;20049;-78
2022/03/19 02:26:20;;;;;;;41.63;21.13;;;-4.60;61.70;;;;;;5116068;28;20441;-78
2022/03/19 02:28:46;;;;;;;50.37;23.93;;;-4.70;61.30;;;;;;5115876;28;20059;-79
2022/03/19 02:31:11;;;;;;;69.57;30.97;;;-4.70;61.50;;;;;;5097552;28;20027;-78
2022/03/19 02:33:37;;;;;;;72.87;32.40;;;-4.80;62.70;;;;;;5115325;28;20067;-78
2022/03/19 02:36:03;;;;;;;72.07;31.07;;;-4.90;63.40;;;;;;5113986;28;20019;-78
2022/03/19 02:38:28;;;;;;;82.60;36.33;;;-5.00;64.00;;;;;;5115556;28;20031;-79
2022/03/19 02:40:54;;;;;;;77.07;33.10;;;-5.00;64.30;;;;;;5114387;28;20102;-78
2022/03/19 02:43:19;;;;;;;63.20;30.13;;;-5.10;64.50;;;;;;5097018;28;20027;-78
2022/03/19 02:45:48;;;;;;;82.53;33.53;;;-5.10;64.80;;;;;;5097226;28;20031;-78
2022/03/19 02:48:13;;;;;;;71.37;32.73;;;-5.20;65.40;;;;;;5115395;28;20035;-78
2022/03/19 02:50:39;;;;;;;71.17;33.47;;;-5.30;66.10;;;;;;5115499;28;20020;-78
2022/03/19 02:53:12;;;;;;;72.33;31.03;;;-5.30;66.90;;;;;;5115202;28;20032;-78
2022/03/19 02:55:40;;;;;;;72.07;29.90;;;-5.40;67.10;;;;;;5097059;28;20038;-78
2022/03/19 02:58:07;;;;;;;58.70;28.03;;;-5.40;67.10;;;;;;5096981;28;20016;-78
2022/03/19 03:00:34;;;;;;;59.07;27.30;;;-5.40;67.30;;;;;;5115345;28;20019;-79
2022/03/19 03:03:00;;;;;;;45.53;22.13;;;-5.50;67.00;;;;;;5096862;28;20027;-79
2022/03/19 03:05:25;;;;;;;37.70;21.73;;;-5.50;65.50;;;;;;5096586;28;20023;-79
2022/03/19 03:07:51;;;;;;;47.80;21.47;;;-5.30;63.90;;;;;;5113797;28;20065;-79
2022/03/19 03:10:18;;;;;;;42.07;22.00;;;-5.10;62.80;;;;;;5115028;28;20035;-78
2022/03/19 03:12:44;;;;;;;38.30;18.37;;;-4.90;61.90;;;;;;5096469;28;20023;-78
2022/03/19 03:15:10;;;;;;;35.30;20.83;;;-4.80;61.10;;;;;;5114744;28;20028;-79
2022/03/19 03:17:36;;;;;;;46.57;22.07;;;-4.50;60.40;;;;;;5096377;28;20503;-79
2022/03/19 03:20:02;;;;;;;39.10;21.63;;;-4.30;59.80;;;;;;5113611;28;20015;-79
2022/03/19 03:22:29;;;;;;;46.37;19.90;;;-4.20;59.50;;;;;;5096595;28;20026;-78
2022/03/19 03:24:55;;;;;;;35.63;20.20;;;-4.10;58.90;;;;;;5114523;28;20108;-78
2022/03/19 03:27:21;;;;;;;42.83;21.00;;;-3.90;58.20;;;;;;5114534;28;20477;-78
2022/03/19 03:29:46;;;;;;;36.13;19.47;;;-3.70;57.50;;;;;;5096399;28;20400;-78
2022/03/19 03:32:12;;;;;;;41.57;19.93;;;-3.60;57.00;;;;;;5113346;28;20023;-79
2022/03/19 03:34:39;;;;;;;34.53;19.88;;;-3.60;56.90;;;;;;5114459;28;20094;-79
2022/03/19 03:37:05;;;;;;;36.28;19.30;;;-3.60;57.30;;;;;;5114468;28;20534;-79
2022/03/19 03:39:30;;;;;;;38.20;22.50;;;-3.50;56.70;;;;;;5113182;28;20027;-79
2022/03/19 03:41:56;;;;;;;36.65;20.75;;;-3.60;56.80;;;;;;5114360;28;20027;-78
2022/03/19 03:44:21;;;;;;;45.77;21.57;;;-3.60;56.90;;;;;;5112938;28;20024;-79
2022/03/19 03:46:48;;;;;;;37.03;20.50;;;-3.60;57.20;;;;;;5114393;28;20408;-79
2022/03/19 03:49:14;;;;;;;35.50;21.73;;;-3.70;57.40;;;;;;5095027;28;20423;-78
2022/03/19 03:51:40;;;;;;;51.20;23.43;;;-3.80;57.90;;;;;;5095849;28;20027;-79
2022/03/19 03:54:06;;;;;;;41.00;22.20;;;-3.90;59.00;;;;;;5114100;28;20042;-78
2022/03/19 03:56:31;;;;;;;38.42;21.90;;;-4.10;60.00;;;;;;5095667;28;20024;-80
2022/03/19 03:58:57;;;;;;;43.03;21.47;;;-4.20;61.30;;;;;;5114164;28;20035;-79
2022/03/19 04:01:23;;;;;;;41.50;21.50;;;-4.40;61.80;;;;;;5114058;28;20024;-78
2022/03/19 04:03:48;;;;;;;38.90;20.47;;;-4.50;61.80;;;;;;5095771;28;20064;-80
2022/03/19 04:06:14;;;;;;;43.50;20.53;;;-4.60;61.40;;;;;;5112446;28;20018;-79
2022/03/19 04:08:40;;;;;;;36.42;19.27;;;-4.70;60.90;;;;;;5095717;28;20035;-78
2022/03/19 04:11:06;;;;;;;32.53;18.70;;;-4.80;60.70;;;;;;5112584;28;20058;-79
2022/03/19 04:13:31;;;;;;;40.33;19.07;;;-4.90;60.60;;;;;;5112445;28;20038;-79
2022/03/19 04:15:57;;;;;;;31.87;18.33;;;-4.90;60.50;;;;;;5112255;28;20112;-78
2022/03/19 04:18:23;;;;;;;36.87;20.13;;;-5.00;60.80;;;;;;5113772;28;20482;-79
2022/03/19 04:20:48;;;;;;;44.87;22.07;;;-5.10;61.50;;;;;;5112569;28;20030;-78
2022/03/19 04:23:14;;;;;;;43.40;20.70;;;-5.10;61.80;;;;;;5095596;28;20015;-78
2022/03/19 04:25:40;;;;;;;40.13;19.63;;;-5.20;62.00;;;;;;5095079;28;20067;-78
2022/03/19 04:28:06;;;;;;;41.07;22.27;;;-5.30;62.20;;;;;;5112283;28;20500;-79
2022/03/19 04:30:31;;;;;;;54.77;26.60;;;-5.30;62.40;;;;;;5112536;28;20016;-78
2022/03/19 04:33:02;;;;;;;42.83;23.37;;;-5.30;63.10;;;;;;5095232;28;20051;-78
2022/03/19 04:38:19;;;;;;;40.77;20.20;;;-5.30;63.20;;;;;;5113852;28;20035;-78
2022/03/19 04:40:47;;;;;;;36.17;19.97;;;-5.20;62.60;;;;;;5095329;28;20385;-78
2022/03/19 04:43:13;;;;;;;36.73;20.30;;;-4.90;62.10;;;;;;5095235;28;20020;-78
2022/03/19 04:45:40;;;;;;;37.53;19.77;;;-4.80;61.30;;;;;;5113293;28;20116;-78
2022/03/19 04:48:07;;;;;;;35.83;19.37;;;-4.60;60.90;;;;;;5113356;28;20088;-79
2022/03/19 04:50:36;;;;;;;37.47;19.37;;;-4.50;60.80;;;;;;5095305;28;20350;-79
2022/03/19 04:53:03;;;;;;;42.00;22.20;;;-4.50;60.50;;;;;;5095223;28;20051;-79
2022/03/19 04:55:29;;;;;;;38.47;22.13;;;-4.50;60.90;;;;;;5113154;28;20092;-79
2022/03/19 04:57:54;;;;;;;41.47;23.27;;;-4.60;61.10;;;;;;5113244;28;20488;-78
2022/03/19 05:00:20;;;;;;;42.53;22.63;;;-4.60;61.40;;;;;;5114447;28;20111;-78
2022/03/19 05:02:46;;;;;;;38.77;19.30;;;-4.70;61.90;;;;;;5116206;28;20036;-78
2022/03/19 05:05:12;;;;;;;35.42;18.45;;;-4.70;61.70;;;;;;5099847;28;20520;-79
2022/03/19 05:07:39;;;;;;;41.53;19.73;;;-4.50;60.90;;;;;;5096870;28;20038;-78
2022/03/19 05:12:51;;;;;;;31.27;17.43;;;-3.90;59.20;;;;;;5097117;28;20085;-78
2022/03/19 05:15:17;;;;;;;36.20;18.90;;;-3.70;58.60;;;;;;5078601;28;20032;-78
2022/03/19 05:17:44;;;;;;;32.78;17.17;;;-3.50;57.80;;;;;;5096514;28;20020;-78
2022/03/19 05:20:11;;;;;;;36.78;19.70;;;-3.40;57.20;;;;;;5078516;28;20035;-79
2022/03/19 05:22:37;;;;;;;32.78;19.25;;;-3.30;56.90;;;;;;5078487;28;20024;-78
2022/03/19 05:25:04;;;;;;;36.67;19.00;;;-3.10;56.40;;;;;;5078454;28;20488;-78
2022/03/19 05:27:30;;;;;;;30.73;17.65;;;-3.00;56.20;;;;;;5078300;28;20401;-78
2022/03/19 05:29:56;;;;;;;35.65;19.98;;;-2.90;56.00;;;;;;5096550;28;20032;-78
2022/03/19 05:32:21;;;;;;;33.92;20.38;;;-2.90;55.90;;;;;;5096563;28;20035;-79
2022/03/19 05:34:48;;;;;;;36.08;17.88;;;-2.80;55.70;;;;;;5116897;28;20050;-80
2022/03/19 05:37:14;;;;;;;39.70;19.50;;;-2.70;55.80;;;;;;5116624;28;20027;-79
2022/03/19 05:39:41;;;;;;;38.08;17.77;;;-2.70;55.60;;;;;;5098613;28;20023;-80
2022/03/19 05:42:07;;;;;;;30.15;18.52;;;-2.60;55.60;;;;;;5098432;28;20381;-79
2022/03/19 05:44:33;;;;;;;36.97;19.63;;;-2.50;55.40;;;;;;5098511;28;20393;-79
2022/03/19 05:46:59;;;;;;;32.47;17.50;;;-2.40;54.90;;;;;;5116445;28;20024;-80
2022/03/19 05:49:29;;;;;;;34.65;19.92;;;-2.20;54.60;;;;;;5097951;28;20055;-80
2022/03/19 05:51:56;;;;;;;32.22;19.10;;;-2.10;54.40;;;;;;5116783;28;20027;-80
2022/03/19 05:54:23;;;;;;;38.70;20.20;;;-2.10;54.20;;;;;;5098189;28;20065;-80
2022/03/19 05:56:49;;;;;;;33.97;20.38;;;-1.90;54.20;;;;;;5097836;28;20472;-80
2022/03/19 05:59:14;;;;;;;34.00;19.75;;;-1.80;54.00;;;;;;5116423;28;20020;-80
2022/03/19 06:01:42;;;;;;;38.83;19.50;;;-1.70;53.80;;;;;;5097787;28;20474;-80
2022/03/19 06:04:08;;;;;;;43.63;20.52;;;-1.60;53.60;;;;;;5091151;28;20024;-79
2022/03/19 06:06:34;;;;;;;40.63;22.02;;;-1.40;53.40;;;;;;5085465;28;20023;-79
2022/03/19 06:08:59;;;;;;;36.40;19.75;;;-1.30;53.90;;;;;;5093453;28;20468;-79
2022/03/19 06:11:25;;;;;;;33.83;19.70;;;-1.20;53.00;;;;;;5092994;28;20052;-79
2022/03/19 06:13:51;;;;;;;36.10;19.90;;;-1.00;52.80;;;;;;5094889;28;20027;-77
2022/03/19 06:16:16;;;;;;;42.72;20.88;;;-0.90;52.70;;;;;;5092990;28;20043;-77
2022/03/19 06:18:50;;;;;;;37.75;19.23;;;-0.80;52.20;;;;;;5093301;28;20027;-76
2022/03/19 06:21:17;;;;;;;38.92;21.30;;;-0.70;52.10;;;;;;5093375;28;20044;-76
2022/03/19 06:23:46;;;;;;;37.70;19.63;;;-0.60;51.70;;;;;;5093383;28;20013;-77
2022/03/19 06:26:12;;;;;;;38.20;19.95;;;-0.50;51.50;;;;;;5093297;28;20093;-75
2022/03/19 06:28:38;;;;;;;38.55;21.48;;;-0.40;51.60;;;;;;5093093;28;20108;-76
2022/03/19 06:31:04;;;;;;;37.70;19.80;;;-0.40;51.50;;;;;;5092495;28;20570;-76
2022/03/19 06:33:30;;;;;;;43.00;22.00;;;-0.30;51.50;;;;;;5103866;28;20520;-76
2022/03/19 06:38:40;;;;;;;42.67;21.42;;;-0.20;51.60;;;;;;5114751;28;20487;-76
2022/03/19 06:41:05;;;;;;;35.60;20.50;;;-0.10;51.70;;;;;;5114473;28;20044;-76
2022/03/19 06:43:31;;;;;;;39.40;21.38;;;-0.10;51.80;;;;;;5114597;28;20160;-77
2022/03/19 06:46:00;;;;;;;43.55;24.63;;;0.00;52.10;;;;;;5113064;28;20031;-77
2022/03/19 06:48:29;;;;;;;42.40;20.98;;;0.10;52.20;;;;;;5092651;28;20070;-77
2022/03/19 06:50:55;;;;;;;34.25;19.75;;;0.20;52.00;;;;;;5095420;28;20027;-77
2022/03/19 06:53:24;;;;;;;47.80;23.30;;;0.30;51.60;;;;;;5095891;28;20454;-77
2022/03/19 06:55:51;;;;;;;43.90;21.63;;;0.40;51.30;;;;;;5092003;28;20027;-76
2022/03/19 06:58:16;;;;;;;38.75;19.75;;;0.50;51.50;;;;;;5096131;28;20035;-76
2022/03/19 07:00:42;;;;;;;35.80;20.70;;;0.60;51.20;;;;;;5112417;27;20024;-78
2022/03/19 07:03:08;;;;;;;39.13;18.73;;;0.80;51.10;;;;;;5114189;28;20152;-76
2022/03/19 07:05:34;;;;;;;36.92;20.55;;;0.80;50.60;;;;;;5094423;28;20115;-77
2022/03/19 07:08:01;;;;;;;39.45;21.92;;;0.90;50.30;;;;;;5112701;28;20023;-77
2022/03/19 07:10:27;;;;;;;34.42;20.75;;;1.00;50.30;;;;;;5092386;28;20036;-77
2022/03/19 07:12:57;;;;;;;35.50;20.77;;;1.20;49.90;;;;;;5092356;28;20031;-77
2022/03/19 07:15:27;;;;;;;38.08;19.98;;;1.30;49.80;;;;;;5094298;28;20031;-78
2022/03/19 07:17:53;;;;;;;38.25;19.25;;;1.40;49.50;;;;;;5111437;28;20023;-77
2022/03/19 07:20:20;;;;;;;31.13;18.50;;;1.60;48.60;;;;;;5111445;28;20035;-77
2022/03/19 07:22:58;;;;;;;31.80;18.35;;;1.70;48.20;;;;;;5093634;27;20031;-77
2022/03/19 07:25:25;;;;;;;31.02;17.42;;;1.90;48.50;;;;;;5110779;28;20114;-77
2022/03/19 07:27:52;;;;;;;32.13;17.48;;;2.00;47.30;;;;;;5099620;28;20032;-76
2022/03/19 07:30:18;;;;;;;29.75;16.80;;;2.20;46.50;;;;;;5108586;28;20020;-76
2022/03/19 07:32:44;;;;;;;31.20;15.05;;;2.30;46.10;;;;;;5112197;28;20429;-76
2022/03/19 07:35:10;;;;;;;27.80;17.02;;;2.50;45.60;;;;;;5114486;28;20023;-76
2022/03/19 07:37:37;;;;;;;24.10;13.10;;;2.50;44.70;;;;;;5088197;28;20134;-74
2022/03/19 07:40:04;;;;;;;26.80;15.18;;;2.70;44.40;;;;;;5112525;28;20580;-76
2022/03/19 07:42:30;;;;;;;23.77;13.18;;;2.80;43.60;;;;;;5113230;28;20012;-76
2022/03/19 07:44:55;;;;;;;28.08;15.73;;;3.00;43.50;;;;;;5110819;27;20092;-76
2022/03/19 07:47:21;;;;;;;24.80;13.63;;;3.10;43.40;;;;;;5116584;27;20389;-76
2022/03/19 07:49:47;;;;;;;24.20;14.80;;;3.20;42.60;;;;;;5099608;27;20062;-75
2022/03/19 07:52:12;;;;;;;23.40;13.73;;;3.20;42.00;;;;;;5113858;27;20043;-76
2022/03/19 07:54:38;;;;;;;24.48;13.98;;;3.40;41.80;;;;;;5094183;28;20439;-76
2022/03/19 07:57:06;;;;;;;21.73;12.55;;;3.40;41.30;;;;;;5093998;28;20051;-78
2022/03/19 07:59:32;;;;;;;27.83;14.20;;;3.50;41.30;;;;;;5108415;28;20080;-76
2022/03/19 08:01:58;;;;;;;21.67;13.35;;;3.50;41.10;;;;;;5095342;28;20538;-78
2022/03/19 08:04:24;;;;;;;23.00;11.60;;;3.60;40.80;;;;;;5094590;28;20019;-78
2022/03/19 08:06:53;;;;;;;20.40;12.43;;;3.50;40.30;;;;;;5094704;28;20069;-77
2022/03/19 08:09:19;;;;;;;21.05;11.57;;;3.70;40.70;;;;;;5093506;28;20392;-77
2022/03/19 08:11:45;;;;;;;16.20;10.30;;;3.70;40.10;;;;;;5111897;28;20024;-78
2022/03/19 08:14:14;;;;;;;23.48;13.25;;;3.70;40.00;;;;;;5094466;28;20019;-78
2022/03/19 08:16:40;;;;;;;22.17;14.02;;;3.90;39.90;;;;;;5107506;27;20040;-78
2022/03/19 08:19:06;;;;;;;24.33;12.60;;;3.90;40.20;;;;;;5110460;28;20524;-77
2022/03/19 08:21:31;;;;;;;21.92;12.00;;;3.90;39.80;;;;;;5093991;28;20024;-78
2022/03/19 08:23:57;;;;;;;19.27;11.80;;;4.00;39.80;;;;;;5108202;28;20028;-78
2022/03/19 08:26:22;;;;;;;24.25;12.55;;;4.20;39.70;;;;;;5109999;28;20630;-75
2022/03/19 08:28:48;;;;;;;23.67;12.73;;;4.10;39.40;;;;;;5108645;28;20066;-78
2022/03/19 08:31:13;;;;;;;20.23;11.60;;;4.20;39.30;;;;;;5088348;28;20119;-78
2022/03/19 08:33:39;;;;;;;17.88;10.30;;;4.40;39.50;;;;;;5087465;28;20056;-75
2022/03/19 08:36:05;;;;;;;17.00;9.77;;;4.30;38.20;;;;;;5071340;28;20051;-78
2022/03/19 08:41:14;;;;;;;18.05;10.60;;;4.40;37.80;;;;;;5093773;28;20496;-77
2022/03/19 08:43:40;;;;;;;18.15;9.18;;;4.60;38.50;;;;;;5092393;28;20024;-77
2022/03/19 08:46:06;;;;;;;18.10;10.88;;;4.60;37.60;;;;;;5091837;28;20047;-77
2022/03/19 08:48:32;;;;;;;19.00;11.35;;;4.50;37.30;;;;;;5074274;28;20614;-78
2022/03/19 08:51:39;;;;;;;17.52;11.38;;;4.60;37.50;;;;;;5080064;28;20489;-77
2022/03/19 08:53:44;;;;;;;15.10;9.23;;;4.70;37.30;;;;;;5112811;28;20496;-78
2022/03/19 08:56:09;;;;;;;15.85;9.77;;;4.50;36.80;;;;;;5111855;28;20024;-77
2022/03/19 08:58:37;;;;;;;18.73;12.25;;;4.40;36.50;;;;;;5113381;28;20499;-77
2022/03/19 09:01:03;;;;;;;18.55;11.90;;;4.40;36.80;;;;;;5113009;28;20019;-77
2022/03/19 09:03:29;;;;;;;17.83;11.93;;;4.40;37.20;;;;;;5113071;28;20104;-78
2022/03/19 09:05:55;;;;;;;21.45;11.20;;;4.50;37.30;;;;;;5094603;28;20485;-78
2022/03/19 09:08:21;;;;;;;19.98;10.20;;;4.60;37.40;;;;;;5111897;28;20058;-78
2022/03/19 09:10:47;;;;;;;20.23;10.07;;;4.70;37.30;;;;;;5094349;28;20024;-78
2022/03/19 09:13:13;;;;;;;13.85;9.18;;;4.70;36.80;;;;;;5094167;28;20450;-78
2022/03/19 09:15:39;;;;;;;13.32;8.23;;;4.80;36.00;;;;;;5112923;28;20450;-78
2022/03/19 09:18:05;;;;;;;14.10;8.52;;;4.70;35.00;;;;;;5119742;28;20030;-75
2022/03/19 09:20:31;;;;;;;16.27;9.98;;;4.90;34.70;;;;;;5091525;28;20028;-75
2022/03/19 09:22:57;;;;;;;14.73;9.75;;;5.00;34.50;;;;;;5113116;28;20032;-75
2022/03/19 09:25:23;;;;;;;12.95;9.40;;;5.20;34.80;;;;;;5128319;28;20012;-76
2022/03/19 09:27:48;;;;;;;16.45;10.07;;;5.40;34.90;;;;;;5094158;28;20107;-75
2022/03/19 09:30:14;;;;;;;12.10;7.78;;;5.50;35.10;;;;;;5111297;28;20032;-76
2022/03/19 09:32:40;;;;;;;14.95;7.82;;;5.50;34.30;;;;;;5113261;28;20047;-75
2022/03/19 09:35:06;;;;;;;13.82;8.63;;;5.30;33.40;;;;;;5128233;28;20080;-75
2022/03/19 09:37:32;;;;;;;13.95;10.07;;;5.20;33.80;;;;;;5117245;28;20090;-75
2022/03/19 09:39:58;;;;;;;13.27;8.98;;;5.30;34.60;;;;;;5092453;28;20024;-78
2022/03/19 09:42:26;;;;;;;12.95;8.68;;;5.20;33.70;;;;;;5112338;28;20032;-78
2022/03/19 09:44:52;;;;;;;14.90;9.70;;;5.00;33.90;;;;;;5094138;28;20036;-78
2022/03/19 09:47:18;;;;;;;12.30;9.05;;;5.10;34.10;;;;;;5114732;28;20023;-78
2022/03/19 09:49:44;;;;;;;10.50;7.70;;;5.40;34.60;;;;;;5116687;28;20043;-75
2022/03/19 09:52:12;;;;;;;16.70;9.43;;;5.30;33.70;;;;;;5115598;28;20035;-76
2022/03/19 09:54:38;;;;;;;13.13;7.97;;;5.40;33.30;;;;;;5113702;28;20102;-78
2022/03/19 09:57:04;;;;;;;11.73;6.82;;;5.50;33.40;;;;;;5116551;28;20051;-78
2022/03/19 09:59:31;;;;;;;12.73;7.55;;;5.40;32.50;;;;;;5116590;28;20028;-78
2022/03/19 10:01:56;;;;;;;13.02;8.20;;;5.40;32.40;;;;;;5116199;28;20023;-78
2022/03/19 10:04:23;;;;;;;13.45;7.20;;;5.50;33.00;;;;;;5115080;28;20019;-75
2022/03/19 10:09:45;;;;;;;15.38;8.38;;;5.60;31.70;;;;;;5116306;28;20412;-75
2022/03/19 10:12:20;;;;;;;15.18;7.97;;;5.50;31.00;;;;;;5115276;28;20385;-74
2022/03/19 10:14:48;;;;;;;15.32;8.57;;;5.60;31.60;;;;;;5105650;27;20023;-78
2022/03/19 10:17:34;;;;;;;14.00;8.30;;;5.60;31.80;;;;;;5124571;27;20015;-78
2022/03/19 10:20:06;;;;;;;15.75;8.88;;;5.50;31.70;;;;;;5122332;27;20047;-78
2022/03/19 10:22:32;;;;;;;15.45;9.43;;;5.50;31.80;;;;;;5124678;27;20029;-78
2022/03/19 10:25:05;;;;;;;16.33;9.82;;;5.60;32.10;;;;;;5118196;27;20034;-77
2022/03/19 10:27:33;;;;;;;13.85;8.77;;;5.70;32.50;;;;;;5115976;27;20801;-78
2022/03/19 10:30:20;;;;;;;14.98;9.63;;;5.50;31.90;;;;;;5115661;27;20034;-77
2022/03/19 10:32:51;;;;;;;19.10;8.32;;;5.60;32.00;;;;;;5113075;28;20040;-78
2022/03/19 10:35:24;;;;;;;16.73;8.68;;;5.70;32.60;;;;;;5115331;28;20016;-78
2022/03/19 10:37:49;;;;;;;;;;;5.60;32.20;;;;;;5115732;28;20015;-78
2022/03/19 10:40:15;;;;;;;12.50;8.20;;;5.70;31.70;;;;;;5115049;28;20474;-79
2022/03/19 10:42:42;;;;;;;13.00;8.63;;;5.90;32.20;;;;;;5096640;28;20042;-78
2022/03/19 10:45:18;;;;;;;12.68;10.07;;;6.10;32.30;;;;;;5114865;28;20035;-78
2022/03/19 10:47:48;;;;;;;13.43;8.68;;;6.00;32.00;;;;;;5114384;28;20041;-76
2022/03/19 10:50:24;;;;;;;13.82;8.88;;;6.00;31.80;;;;;;5114272;28;20035;-78
2022/03/19 10:52:52;;;;;;;11.35;6.95;;;6.10;31.40;;;;;;5095722;28;20015;-75
2022/03/19 10:55:19;;;;;;;15.05;8.23;;;5.90;30.90;;;;;;5092447;28;20107;-75
2022/03/19 10:57:45;;;;;;;11.73;6.90;;;6.00;31.10;;;;;;5096052;28;20016;-75
2022/03/19 11:00:13;;;;;;;12.38;7.07;;;6.10;30.10;;;;;;5114754;28;20019;-75
2022/03/19 11:02:43;;;;;;;13.75;7.70;;;6.10;30.40;;;;;;5095781;28;20065;-75
2022/03/19 11:05:11;;;;;;;11.43;7.32;;;6.20;30.90;;;;;;5096768;28;20027;-77
2022/03/19 11:07:38;;;;;;;11.68;7.43;;;6.00;30.00;;;;;;5096943;28;20445;-75
2022/03/19 11:10:05;;;;;;;17.58;7.93;;;6.10;30.10;;;;;;5114485;28;20032;-80
2022/03/19 11:12:35;;;;;;;15.18;9.40;;;6.10;30.10;;;;;;5094715;28;20015;-78
2022/03/19 11:15:04;;;;;;;13.55;8.65;;;6.10;30.80;;;;;;5095259;28;20099;-79
2022/03/19 11:17:32;;;;;;;11.57;7.43;;;6.20;31.30;;;;;;5094322;28;20023;-78
2022/03/19 11:20:04;;;;;;;13.82;7.20;;;6.20;31.10;;;;;;5120182;27;20492;-79
2022/03/19 11:22:39;;;;;;;14.73;7.75;;;6.20;30.30;;;;;;5114242;28;20024;-75
2022/03/19 11:25:11;;;;;;;12.05;7.63;;;6.20;30.10;;;;;;5112802;28;20027;-75
2022/03/19 11:27:39;;;;;;;14.82;8.85;;;6.40;30.50;;;;;;5095551;28;20031;-78
2022/03/19 11:30:06;;;;;;;15.52;8.15;;;6.30;30.50;;;;;;5094073;28;20028;-75
2022/03/19 11:32:31;;;;;;;11.93;8.18;;;6.40;30.50;;;;;;5111443;28;20023;-78
2022/03/19 11:34:59;;;;;;;12.68;8.32;;;6.40;30.70;;;;;;5113122;28;20347;-75
2022/03/19 11:37:46;;;;;;;15.80;7.90;;;6.70;30.80;;;;;;5096353;28;20422;-75
2022/03/19 11:40:11;;;;;;;13.48;8.18;;;6.70;30.20;;;;;;5114360;28;20072;-78
2022/03/19 11:42:54;;;;;;;10.25;7.05;;;6.70;30.20;;;;;;5114322;28;20024;-75
2022/03/19 11:45:19;;;;;;;14.93;8.57;;;6.70;30.00;;;;;;5114536;28;20429;-75
2022/03/19 11:47:45;;;;;;;14.30;8.23;;;6.60;30.00;;;;;;5096117;28;20027;-77
2022/03/19 11:50:18;;;;;;;13.35;7.97;;;6.50;30.00;;;;;;5094237;28;20028;-75
2022/03/19 11:52:47;;;;;;;11.60;8.50;;;6.60;30.00;;;;;;5093782;28;20031;-78
2022/03/19 11:55:16;;;;;;;11.93;7.53;;;6.60;29.60;;;;;;5093937;28;20076;-75
2022/03/19 11:57:56;;;;;;;9.73;6.88;;;6.70;30.10;;;;;;5093783;28;20054;-75
2022/03/19 12:00:34;;;;;;;13.48;7.93;;;6.90;30.40;;;;;;5112146;28;20580;-78
2022/03/19 12:03:07;;;;;;;13.10;8.05;;;6.90;30.40;;;;;;5111839;28;20019;-75
2022/03/19 12:05:35;;;;;;;14.10;7.57;;;6.80;29.90;;;;;;5095616;28;20024;-75
2022/03/19 12:08:17;;;;;;;11.75;8.85;;;6.80;30.00;;;;;;5113863;28;20097;-78
2022/03/19 12:10:57;;;;;;;16.13;8.52;;;6.80;29.90;;;;;;5113469;28;20031;-79
2022/03/19 12:13:26;;;;;;;15.27;8.88;;;6.80;30.10;;;;;;5095538;28;20119;-75
2022/03/19 12:15:56;;;;;;;11.75;7.95;;;6.90;30.00;;;;;;5095803;28;20388;-76
2022/03/19 12:18:34;;;;;;;11.13;8.55;;;6.90;30.00;;;;;;5113775;28;20050;-75
2022/03/19 12:21:04;;;;;;;13.00;8.25;;;6.90;30.30;;;;;;5113959;28;20058;-76
2022/03/19 12:23:58;;;;;;;13.13;7.50;;;6.80;29.90;;;;;;5113541;28;20023;-76
2022/03/19 12:26:25;;;;;;;15.70;8.65;;;6.80;29.70;;;;;;5082689;28;20035;-75
2022/03/19 12:29:02;;;;;;;15.88;8.27;;;6.70;30.00;;;;;;5113700;28;20449;-75
2022/03/19 12:31:30;;;;;;;12.50;7.55;;;6.80;30.00;;;;;;5095504;28;20473;-75
2022/03/19 12:33:56;;;;;;;13.63;8.27;;;6.80;30.00;;;;;;5113461;28;20055;-78
2022/03/19 12:36:21;;;;;;;13.82;8.27;;;6.90;30.00;;;;;;5113572;28;20032;-79
2022/03/19 12:38:50;;;;;;;11.45;7.68;;;6.80;29.60;;;;;;5113643;28;20030;-75
2022/03/19 12:41:29;;;;;;;10.65;7.35;;;6.80;29.90;;;;;;5113504;28;20020;-78
2022/03/19 12:43:56;;;;;;;12.20;6.72;;;6.80;29.70;;;;;;5113481;28;20015;-75
2022/03/19 12:46:34;;;;;;;10.05;6.28;;;6.90;29.70;;;;;;5095138;28;20034;-75
2022/03/19 12:49:11;;;;;;;15.18;8.88;;;7.00;28.40;;;;;;5095169;28;20028;-75
2022/03/19 12:51:47;;;;;;;11.60;8.00;;;7.10;28.80;;;;;;5095251;28;20534;-75
2022/03/19 12:54:28;;;;;;;13.82;8.85;;;7.00;28.30;;;;;;5094854;28;20051;-78